createdAt,value
2019-03-31T00:01:39.331Z,28.90
2019-03-31T00:04:05.444Z,27.93
2019-03-31T00:06:31.630Z,28.35
2019-03-31T00:08:57.700Z,28.55
2019-03-31T00:11:23.838Z,30.95
2019-03-31T00:13:49.908Z,35.43
2019-03-31T00:16:15.966Z,28.90
2019-03-31T00:18:42.037Z,26.30
2019-03-31T00:21:08.243Z,26.42
2019-03-31T00:23:34.417Z,25.32
2019-03-31T00:26:00.499Z,29.42
2019-03-31T00:28:26.564Z,28.23
2019-03-31T00:30:53.248Z,24.65
2019-03-31T00:33:19.380Z,27.95
2019-03-31T00:35:45.546Z,26.68
2019-03-31T00:38:11.718Z,27.35
2019-03-31T00:40:37.787Z,26.73
2019-03-31T00:43:03.884Z,24.92
2019-03-31T00:45:30.084Z,23.50
2019-03-31T00:47:56.240Z,24.72
2019-03-31T00:50:22.337Z,28.65
2019-03-31T00:52:48.433Z,24.95
2019-03-31T00:55:14.508Z,25.88
2019-03-31T00:57:40.600Z,25.27
2019-03-31T01:00:10.012Z,25.20
2019-03-31T01:02:36.187Z,27.32
2019-03-31T01:05:05.265Z,25.25
2019-03-31T01:07:31.490Z,29.18
2019-03-31T01:09:57.952Z,28.60
2019-03-31T01:12:25.055Z,27.20
2019-03-31T01:14:51.199Z,33.65
2019-03-31T01:17:19.115Z,24.85
2019-03-31T01:19:45.372Z,27.75
2019-03-31T01:22:11.533Z,30.05
2019-03-31T01:24:37.765Z,28.10
2019-03-31T01:27:07.572Z,29.98
2019-03-31T01:29:33.737Z,24.15
2019-03-31T01:31:59.929Z,27.25
2019-03-31T01:34:26.240Z,26.40
2019-03-31T01:36:52.441Z,25.27
2019-03-31T01:39:18.895Z,27.70
2019-03-31T01:41:44.972Z,25.50
2019-03-31T01:44:11.357Z,24.18
2019-03-31T01:46:37.481Z,24.65
2019-03-31T01:49:04.461Z,25.00
2019-03-31T01:51:30.722Z,26.55
2019-03-31T01:53:56.811Z,24.70
2019-03-31T01:56:23.482Z,24.43
2019-03-31T01:58:49.580Z,23.20
2019-03-31T02:01:17.367Z,23.57
2019-03-31T02:03:43.566Z,27.22
2019-03-31T02:06:09.836Z,28.92
2019-03-31T02:08:35.909Z,27.93
2019-03-31T02:11:02.047Z,30.30
2019-03-31T02:13:28.140Z,27.62
2019-03-31T02:15:54.203Z,22.48
2019-03-31T02:18:20.303Z,26.48
2019-03-31T02:20:46.380Z,27.58
2019-03-31T02:23:12.461Z,25.27
2019-03-31T02:25:38.627Z,28.90
2019-03-31T02:28:04.709Z,27.22
2019-03-31T02:30:30.908Z,23.73
2019-03-31T02:32:57.061Z,24.20
2019-03-31T02:35:24.001Z,22.50
2019-03-31T02:37:50.060Z,26.45
2019-03-31T02:40:16.236Z,24.70
2019-03-31T02:42:42.333Z,25.23
2019-03-31T02:45:08.610Z,24.80
2019-03-31T02:47:34.686Z,30.43
2019-03-31T02:50:00.866Z,29.63
2019-03-31T02:52:27.023Z,26.73
2019-03-31T02:54:53.203Z,25.25
2019-03-31T02:57:20.582Z,23.75
2019-03-31T02:59:49.306Z,24.15
2019-03-31T03:02:15.870Z,22.17
2019-03-31T03:04:42.141Z,24.12
2019-03-31T03:07:10.828Z,28.27
2019-03-31T03:09:38.273Z,25.30
2019-03-31T03:12:07.959Z,24.60
2019-03-31T03:14:36.765Z,24.65
2019-03-31T03:17:02.941Z,25.23
2019-03-31T03:19:29.157Z,25.23
2019-03-31T03:21:55.358Z,22.67
2019-03-31T03:24:21.432Z,21.70
2019-03-31T03:26:47.610Z,26.97
2019-03-31T03:29:13.779Z,25.20
2019-03-31T03:31:39.880Z,26.52
2019-03-31T03:34:06.079Z,26.73
2019-03-31T03:36:32.293Z,26.37
2019-03-31T03:38:58.440Z,24.27
2019-03-31T03:41:24.511Z,25.10
2019-03-31T03:43:56.015Z,22.93
2019-03-31T03:46:18.677Z,27.22
2019-03-31T03:48:44.734Z,23.98
2019-03-31T03:51:11.023Z,28.10
2019-03-31T03:53:37.212Z,25.20
2019-03-31T03:56:03.404Z,25.72
2019-03-31T03:58:29.591Z,25.70
2019-03-31T04:00:55.754Z,26.82
2019-03-31T04:03:30.823Z,22.42
2019-03-31T04:05:49.915Z,22.73
2019-03-31T04:08:16.014Z,22.73
2019-03-31T04:10:46.019Z,23.57
2019-03-31T04:13:12.505Z,22.25
2019-03-31T04:15:38.872Z,20.02
2019-03-31T04:18:04.992Z,17.30
2019-03-31T04:20:31.235Z,20.52
2019-03-31T04:22:57.361Z,23.32
2019-03-31T04:25:23.550Z,21.35
2019-03-31T04:27:49.639Z,20.82
2019-03-31T04:30:15.729Z,15.85
2019-03-31T04:32:41.826Z,24.18
2019-03-31T04:35:07.923Z,19.85
2019-03-31T04:37:34.002Z,18.37
2019-03-31T04:40:00.535Z,18.90
2019-03-31T04:42:26.839Z,19.00
2019-03-31T04:44:52.928Z,16.90
2019-03-31T04:47:19.087Z,16.15
2019-03-31T04:49:45.218Z,13.88
2019-03-31T04:52:11.398Z,15.25
2019-03-31T04:54:37.448Z,20.52
2019-03-31T04:57:04.643Z,17.85
2019-03-31T04:59:31.042Z,21.97
2019-03-31T05:01:57.125Z,19.00
2019-03-31T05:04:23.270Z,22.20
2019-03-31T05:06:49.388Z,22.25
2019-03-31T05:09:15.461Z,22.10
2019-03-31T05:11:41.671Z,23.75
2019-03-31T05:14:07.836Z,21.65
2019-03-31T05:16:33.961Z,24.23
2019-03-31T05:19:00.064Z,22.20
2019-03-31T05:21:26.163Z,21.90
2019-03-31T05:23:52.242Z,21.73
2019-03-31T05:26:18.306Z,22.25
2019-03-31T05:28:44.420Z,23.22
2019-03-31T05:31:10.704Z,24.50
2019-03-31T05:33:36.880Z,21.25
2019-03-31T05:36:03.058Z,23.15
2019-03-31T05:38:29.245Z,20.95
2019-03-31T05:40:55.338Z,22.82
2019-03-31T05:43:21.435Z,25.72
2019-03-31T05:45:47.527Z,28.52
2019-03-31T05:48:13.604Z,21.35
2019-03-31T05:50:39.692Z,24.27
2019-03-31T05:53:06.061Z,30.30
2019-03-31T05:55:32.152Z,26.17
2019-03-31T05:57:58.277Z,23.30
2019-03-31T06:00:29.886Z,22.52
2019-03-31T06:02:55.949Z,25.50
2019-03-31T06:05:22.027Z,26.62
2019-03-31T06:07:48.099Z,22.95
2019-03-31T06:10:14.173Z,25.45
2019-03-31T06:12:40.370Z,24.10
2019-03-31T06:15:06.764Z,26.85
2019-03-31T06:17:32.861Z,24.92
2019-03-31T06:19:58.939Z,23.67
2019-03-31T06:22:25.055Z,28.45
2019-03-31T06:24:51.140Z,31.15
2019-03-31T06:27:17.219Z,23.20
2019-03-31T06:29:43.302Z,24.60
2019-03-31T06:32:09.368Z,27.02
2019-03-31T06:34:46.733Z,20.75
2019-03-31T06:37:03.465Z,31.65
2019-03-31T06:39:29.543Z,28.55
2019-03-31T06:41:55.641Z,25.37
2019-03-31T06:44:21.730Z,29.02
2019-03-31T06:46:47.820Z,29.32
2019-03-31T06:49:13.924Z,28.35
2019-03-31T06:51:39.995Z,29.87
2019-03-31T06:54:06.211Z,31.77
2019-03-31T06:56:32.313Z,27.40
2019-03-31T06:58:58.528Z,29.98
2019-03-31T07:01:24.781Z,28.27
2019-03-31T07:03:50.879Z,30.37
2019-03-31T07:06:16.948Z,32.30
2019-03-31T07:08:43.145Z,31.70
2019-03-31T07:11:09.204Z,30.50
2019-03-31T07:13:35.276Z,30.15
2019-03-31T07:16:01.363Z,30.20
2019-03-31T07:18:27.453Z,28.45
2019-03-31T07:20:54.378Z,29.77
2019-03-31T07:23:20.468Z,29.42
2019-03-31T07:25:46.544Z,29.25
2019-03-31T07:28:12.645Z,29.00
2019-03-31T07:30:38.700Z,30.77
2019-03-31T07:33:04.789Z,33.00
2019-03-31T07:35:30.981Z,28.65
2019-03-31T07:37:57.048Z,32.83
2019-03-31T07:40:23.458Z,30.08
2019-03-31T07:42:52.921Z,35.17
2019-03-31T07:45:19.274Z,33.33
2019-03-31T07:47:45.362Z,33.58
2019-03-31T07:50:15.870Z,31.05
2019-03-31T07:52:42.035Z,34.18
2019-03-31T07:55:09.855Z,36.65
2019-03-31T07:57:36.119Z,33.95
2019-03-31T08:00:24.616Z,37.50
2019-03-31T08:02:51.928Z,40.00
2019-03-31T08:05:32.473Z,35.05
2019-03-31T08:07:47.342Z,37.15
2019-03-31T08:10:14.289Z,35.95
2019-03-31T08:12:40.916Z,36.17
2019-03-31T08:15:08.528Z,41.58
2019-03-31T08:17:34.622Z,36.68
2019-03-31T08:20:00.818Z,35.55
2019-03-31T08:22:50.353Z,37.15
2019-03-31T08:25:18.559Z,44.80
2019-03-31T08:27:44.641Z,37.10
2019-03-31T08:30:12.887Z,36.45
2019-03-31T08:32:39.815Z,35.68
2019-03-31T08:35:08.052Z,41.80
2019-03-31T08:37:34.235Z,39.25
2019-03-31T08:40:01.471Z,41.35
2019-03-31T08:42:27.916Z,38.10
2019-03-31T08:44:54.025Z,38.17
2019-03-31T08:47:20.409Z,42.90
2019-03-31T08:49:46.862Z,39.70
2019-03-31T08:52:13.018Z,37.73
2019-03-31T08:54:39.105Z,37.53
2019-03-31T08:57:05.304Z,40.20
2019-03-31T08:59:31.366Z,38.77
2019-03-31T09:01:57.541Z,35.30
2019-03-31T09:04:23.653Z,40.33
2019-03-31T09:06:49.726Z,38.10
2019-03-31T09:09:15.899Z,38.90
2019-03-31T09:11:41.967Z,34.20
2019-03-31T09:14:08.033Z,35.43
2019-03-31T09:16:34.123Z,35.30
2019-03-31T09:19:00.212Z,33.43
2019-03-31T09:21:26.312Z,33.83
2019-03-31T09:23:52.396Z,37.63
2019-03-31T09:26:18.477Z,39.57
2019-03-31T09:28:44.650Z,36.80
2019-03-31T09:31:10.710Z,36.10
2019-03-31T09:33:39.288Z,36.83
2019-03-31T09:36:15.619Z,38.60
2019-03-31T09:38:32.746Z,31.50
2019-03-31T09:40:58.823Z,33.17
2019-03-31T09:43:24.896Z,39.67
2019-03-31T09:45:50.968Z,35.40
2019-03-31T09:48:17.077Z,30.60
2019-03-31T09:50:43.198Z,37.03
2019-03-31T09:53:09.280Z,31.27
2019-03-31T09:55:35.368Z,41.17
2019-03-31T09:58:01.419Z,34.73
2019-03-31T10:00:31.312Z,34.50
2019-03-31T10:02:57.409Z,36.60
2019-03-31T10:05:23.512Z,35.33
2019-03-31T10:07:49.755Z,36.93
2019-03-31T10:10:30.427Z,35.23
2019-03-31T10:12:56.594Z,37.77
2019-03-31T10:15:22.681Z,40.67
2019-03-31T10:17:48.774Z,39.50
2019-03-31T10:20:14.852Z,31.03
2019-03-31T10:22:40.941Z,40.30
2019-03-31T10:25:07.403Z,37.90
2019-03-31T10:27:33.512Z,33.00
2019-03-31T10:29:59.596Z,38.03
2019-03-31T10:32:25.671Z,36.73
2019-03-31T10:34:51.751Z,40.87
2019-03-31T10:37:17.827Z,43.33
2019-03-31T10:39:43.899Z,35.97
2019-03-31T10:42:09.970Z,40.33
2019-03-31T10:44:36.062Z,32.13
2019-03-31T10:47:02.152Z,36.23
2019-03-31T10:49:28.222Z,39.40
2019-03-31T10:51:54.297Z,37.50
2019-03-31T10:54:20.489Z,37.93
2019-03-31T10:56:47.660Z,40.73
2019-03-31T10:59:14.411Z,36.10
2019-03-31T11:01:41.339Z,36.80
2019-03-31T11:04:07.410Z,34.80
2019-03-31T11:06:33.912Z,34.10
2019-03-31T11:08:59.973Z,32.17
2019-03-31T11:11:26.405Z,32.10
2019-03-31T11:13:52.724Z,32.27
2019-03-31T11:16:19.409Z,29.63
2019-03-31T11:18:47.035Z,29.47
2019-03-31T11:21:15.233Z,24.20
2019-03-31T11:23:41.850Z,20.83
2019-03-31T11:26:08.340Z,19.13
2019-03-31T11:28:34.433Z,26.00
2019-03-31T11:31:00.563Z,25.27
2019-03-31T11:33:26.667Z,24.93
2019-03-31T11:35:53.020Z,28.83
2019-03-31T11:38:19.116Z,26.40
2019-03-31T11:40:45.284Z,29.57
2019-03-31T11:43:11.479Z,29.20
2019-03-31T11:45:37.565Z,27.13
2019-03-31T11:48:03.637Z,28.13
2019-03-31T11:50:29.743Z,32.50
2019-03-31T11:52:55.808Z,26.03
2019-03-31T11:55:21.981Z,30.93
2019-03-31T11:57:48.149Z,31.03
2019-03-31T12:00:19.693Z,28.73
2019-03-31T12:02:45.944Z,28.13
2019-03-31T12:05:12.813Z,23.13
2019-03-31T12:07:46.724Z,22.17
2019-03-31T12:10:07.485Z,23.30
2019-03-31T12:12:33.593Z,22.53
2019-03-31T12:15:00.894Z,22.17
2019-03-31T12:17:27.615Z,19.30
2019-03-31T12:19:54.033Z,19.50
2019-03-31T12:22:20.166Z,15.40
2019-03-31T12:24:46.260Z,19.10
2019-03-31T12:27:12.350Z,19.30
2019-03-31T12:29:38.473Z,16.07
2019-03-31T12:32:04.732Z,16.40
2019-03-31T12:34:30.820Z,16.37
2019-03-31T12:36:56.883Z,20.60
2019-03-31T12:39:22.978Z,16.70
2019-03-31T12:41:49.038Z,19.67
2019-03-31T12:44:15.130Z,21.13
2019-03-31T12:46:41.327Z,23.00
2019-03-31T12:49:07.460Z,22.53
2019-03-31T12:51:33.655Z,16.67
2019-03-31T12:53:59.808Z,16.03
2019-03-31T12:56:25.940Z,12.87
2019-03-31T12:58:52.005Z,19.57
2019-03-31T13:01:18.208Z,14.33
2019-03-31T13:03:44.276Z,16.03
2019-03-31T13:06:10.356Z,17.53
2019-03-31T13:08:36.404Z,18.27
2019-03-31T13:11:02.517Z,15.20
2019-03-31T13:13:28.587Z,14.50
2019-03-31T13:15:54.743Z,18.33
2019-03-31T13:18:20.880Z,13.17
2019-03-31T13:20:47.486Z,17.47
2019-03-31T13:23:13.584Z,14.83
2019-03-31T13:25:39.664Z,16.40
2019-03-31T13:28:06.030Z,19.30
2019-03-31T13:30:32.217Z,19.60
2019-03-31T13:32:58.407Z,15.90
2019-03-31T13:35:24.491Z,20.73
2019-03-31T13:37:50.583Z,17.07
2019-03-31T13:40:16.756Z,17.27
2019-03-31T13:42:42.868Z,16.10
2019-03-31T13:45:09.458Z,17.37
2019-03-31T13:47:35.636Z,18.63
2019-03-31T13:50:03.917Z,19.23
2019-03-31T13:52:29.996Z,16.17
2019-03-31T13:54:56.079Z,18.90
2019-03-31T13:57:22.909Z,15.07
2019-03-31T13:59:49.922Z,13.77
2019-03-31T14:02:16.463Z,25.50
2019-03-31T14:04:51.514Z,12.73
2019-03-31T14:07:11.342Z,17.10
2019-03-31T14:09:37.823Z,13.67
2019-03-31T14:12:04.340Z,14.90
2019-03-31T14:14:30.820Z,16.30
2019-03-31T14:16:57.343Z,14.40
2019-03-31T14:19:23.873Z,14.00
2019-03-31T14:21:50.391Z,14.77
2019-03-31T14:24:16.917Z,14.57
2019-03-31T14:26:43.431Z,13.80
2019-03-31T14:29:09.912Z,13.30
2019-03-31T14:31:36.400Z,16.60
2019-03-31T14:34:03.704Z,16.97
2019-03-31T14:36:30.283Z,12.90
2019-03-31T14:38:56.784Z,12.90
2019-03-31T14:41:23.277Z,10.60
2019-03-31T14:43:49.780Z,8.90
2019-03-31T14:46:19.487Z,9.10
2019-03-31T14:48:44.693Z,10.37
2019-03-31T14:51:11.216Z,11.67
2019-03-31T14:53:37.735Z,11.13
2019-03-31T14:56:04.238Z,13.67
2019-03-31T14:58:30.751Z,12.13
2019-03-31T15:00:57.345Z,10.10
2019-03-31T15:03:23.877Z,11.60
2019-03-31T15:05:50.364Z,19.93
2019-03-31T15:08:16.842Z,10.13
2019-03-31T15:10:43.338Z,11.63
2019-03-31T15:13:09.868Z,45.80
2019-03-31T15:15:36.393Z,16.50
2019-03-31T15:18:03.006Z,12.33
2019-03-31T15:20:29.507Z,11.20
2019-03-31T15:22:56.037Z,10.03
2019-03-31T15:25:22.698Z,9.73
2019-03-31T15:27:49.277Z,12.30
2019-03-31T15:30:15.880Z,11.60
2019-03-31T15:32:42.482Z,7.77
2019-03-31T15:35:08.982Z,10.93
2019-03-31T15:37:35.587Z,10.37
2019-03-31T15:40:03.543Z,16.70
2019-03-31T15:42:30.249Z,17.50
2019-03-31T15:44:56.747Z,17.07
2019-03-31T15:47:23.269Z,10.37
2019-03-31T15:49:49.749Z,8.60
2019-03-31T15:52:16.312Z,7.57
2019-03-31T15:54:42.871Z,7.70
2019-03-31T15:57:09.370Z,7.40
2019-03-31T15:59:35.875Z,6.50
2019-03-31T16:02:02.448Z,6.73
2019-03-31T16:04:28.984Z,6.77
2019-03-31T16:06:55.498Z,7.77
2019-03-31T16:09:23.612Z,7.83
2019-03-31T16:11:53.962Z,7.27
2019-03-31T16:14:18.833Z,15.00
2019-03-31T16:16:45.346Z,6.80
2019-03-31T16:19:11.856Z,9.23
2019-03-31T16:21:38.438Z,8.37
2019-03-31T16:24:04.952Z,7.90
2019-03-31T16:26:31.425Z,7.20
2019-03-31T16:28:57.964Z,8.30
2019-03-31T16:31:24.575Z,7.43
2019-03-31T16:33:51.060Z,7.90
2019-03-31T16:36:17.659Z,6.67
2019-03-31T16:38:44.271Z,6.60
2019-03-31T16:41:10.892Z,6.50
2019-03-31T16:43:37.396Z,6.47
2019-03-31T16:46:03.883Z,8.90
2019-03-31T16:48:30.475Z,8.03
2019-03-31T16:50:56.988Z,6.37
2019-03-31T16:53:23.492Z,6.87
2019-03-31T16:55:50.012Z,14.17
2019-03-31T16:58:16.599Z,10.83
2019-03-31T17:00:43.172Z,7.53
2019-03-31T17:03:09.740Z,9.57
2019-03-31T17:05:36.244Z,11.40
2019-03-31T17:08:02.748Z,17.63
2019-03-31T17:10:29.447Z,12.23
2019-03-31T17:12:56.031Z,12.33
2019-03-31T17:15:22.599Z,20.40
2019-03-31T17:17:49.105Z,14.47
2019-03-31T17:20:15.490Z,9.13
2019-03-31T17:22:41.571Z,7.00
2019-03-31T17:25:08.548Z,8.47
2019-03-31T17:27:35.374Z,7.13
2019-03-31T17:30:03.578Z,7.00
2019-03-31T17:32:30.120Z,7.77
2019-03-31T17:34:56.939Z,8.10
2019-03-31T17:37:23.283Z,6.80
2019-03-31T17:39:49.339Z,7.10
2019-03-31T17:42:15.446Z,6.77
2019-03-31T17:44:41.917Z,6.73
2019-03-31T17:47:08.080Z,7.30
2019-03-31T17:49:34.168Z,6.93
2019-03-31T17:52:01.417Z,7.30
2019-03-31T17:54:27.891Z,8.30
2019-03-31T17:56:54.017Z,11.97
2019-03-31T17:59:20.091Z,8.30
2019-03-31T18:01:46.284Z,7.67
2019-03-31T18:04:12.819Z,7.93
2019-03-31T18:06:38.961Z,7.77
2019-03-31T18:09:07.590Z,9.37
2019-03-31T18:11:33.797Z,9.30
2019-03-31T18:13:59.891Z,9.70
2019-03-31T18:16:25.989Z,8.77
2019-03-31T18:18:52.059Z,7.63
2019-03-31T18:21:18.166Z,7.30
2019-03-31T18:23:44.266Z,7.93
2019-03-31T18:26:10.378Z,15.37
2019-03-31T18:28:36.468Z,11.43
2019-03-31T18:31:02.669Z,10.03
2019-03-31T18:33:28.826Z,9.13
2019-03-31T18:35:55.245Z,8.80
2019-03-31T18:38:21.342Z,9.10
2019-03-31T18:40:47.512Z,12.60
2019-03-31T18:43:13.676Z,7.57
2019-03-31T18:45:39.876Z,9.10
2019-03-31T18:48:05.995Z,9.33
2019-03-31T18:50:32.231Z,11.87
2019-03-31T18:52:58.795Z,33.00
2019-03-31T18:55:26.796Z,11.10
2019-03-31T18:57:54.787Z,8.60
2019-03-31T19:00:22.906Z,12.83
2019-03-31T19:03:07.645Z,10.57
2019-03-31T19:05:47.715Z,16.80
2019-03-31T19:08:25.056Z,16.87
2019-03-31T19:11:05.425Z,9.50
2019-03-31T19:13:33.414Z,7.53
2019-03-31T19:16:03.907Z,7.73
2019-03-31T19:18:31.908Z,7.70
2019-03-31T19:21:11.096Z,8.03
2019-03-31T19:23:32.561Z,8.60
2019-03-31T19:26:00.729Z,8.77
2019-03-31T19:28:38.217Z,8.17
2019-03-31T19:31:08.956Z,8.83
2019-03-31T19:33:39.560Z,9.93
2019-03-31T19:36:16.912Z,9.60
2019-03-31T19:39:01.603Z,8.90
2019-03-31T19:41:46.247Z,9.60
2019-03-31T19:44:26.425Z,10.40
2019-03-31T19:46:57.419Z,9.73
2019-03-31T19:49:28.391Z,10.57
2019-03-31T19:51:59.101Z,10.10
2019-03-31T19:54:29.865Z,9.90
2019-03-31T19:56:57.842Z,13.10
2019-03-31T19:59:37.595Z,11.33
2019-03-31T20:02:08.089Z,12.93
2019-03-31T20:04:44.933Z,11.93
2019-03-31T20:07:29.485Z,11.90
2019-03-31T20:10:03.505Z,13.20
2019-03-31T20:12:44.367Z,12.27
2019-03-31T20:15:12.611Z,13.00
2019-03-31T20:17:57.321Z,12.60
2019-03-31T20:20:31.487Z,14.47
2019-03-31T20:23:11.515Z,15.40
2019-03-31T20:25:57.746Z,16.13
2019-03-31T20:28:25.764Z,17.93
2019-03-31T20:30:53.727Z,17.53
2019-03-31T20:33:27.328Z,18.10
2019-03-31T20:35:55.288Z,18.33
2019-03-31T20:38:23.263Z,21.33
2019-03-31T20:40:54.051Z,19.80
2019-03-31T20:43:22.129Z,22.10
2019-03-31T20:45:48.330Z,22.10
2019-03-31T20:48:15.423Z,19.90
2019-03-31T20:50:41.530Z,23.30
2019-03-31T20:53:07.605Z,21.23
2019-03-31T20:55:33.689Z,22.73
2019-03-31T20:57:59.745Z,21.20
2019-03-31T21:00:25.826Z,24.37
2019-03-31T21:02:51.916Z,22.87
2019-03-31T21:05:18.008Z,25.10
2019-03-31T21:07:44.176Z,27.77
2019-03-31T21:10:10.351Z,24.63
2019-03-31T21:12:36.399Z,24.87
2019-03-31T21:15:05.189Z,23.97
2019-03-31T21:17:31.248Z,28.33
2019-03-31T21:19:57.328Z,29.30
2019-03-31T21:22:23.404Z,29.37
2019-03-31T21:24:49.512Z,27.10
2019-03-31T21:27:15.588Z,28.70
2019-03-31T21:29:41.647Z,31.00
2019-03-31T21:32:07.753Z,33.53
2019-03-31T21:34:33.820Z,28.57
2019-03-31T21:36:59.888Z,25.97
2019-03-31T21:39:25.970Z,32.07
2019-03-31T21:41:52.033Z,36.97
2019-03-31T21:44:18.128Z,30.00
2019-03-31T21:46:44.211Z,31.73
2019-03-31T21:49:10.323Z,30.20
2019-03-31T21:51:36.421Z,30.93
2019-03-31T21:54:02.594Z,33.47
2019-03-31T21:56:28.674Z,32.90
2019-03-31T21:58:54.770Z,32.67
2019-03-31T22:01:20.875Z,29.13
2019-03-31T22:03:46.931Z,32.20
2019-03-31T22:06:13.041Z,33.90
2019-03-31T22:08:39.132Z,34.10
2019-03-31T22:11:05.197Z,32.47
2019-03-31T22:13:31.284Z,41.10
2019-03-31T22:15:57.347Z,37.30
2019-03-31T22:18:23.449Z,39.20
2019-03-31T22:20:49.733Z,36.10
2019-03-31T22:23:15.802Z,38.70
2019-03-31T22:25:41.900Z,37.43
2019-03-31T22:28:07.980Z,37.70
2019-03-31T22:30:34.493Z,37.00
2019-03-31T22:33:00.577Z,42.63
2019-03-31T22:35:26.635Z,41.47
2019-03-31T22:37:52.873Z,42.30
2019-03-31T22:40:18.960Z,40.57
2019-03-31T22:42:45.124Z,42.10
2019-03-31T22:45:11.414Z,43.13
2019-03-31T22:47:37.491Z,44.80
2019-03-31T22:50:04.760Z,47.17
2019-03-31T22:52:30.825Z,45.60
2019-03-31T22:54:57.018Z,40.87
2019-03-31T22:57:23.111Z,43.97
2019-03-31T22:59:49.209Z,46.10
2019-03-31T23:02:15.282Z,44.30
2019-03-31T23:04:41.456Z,48.23
2019-03-31T23:07:07.551Z,47.45
2019-03-31T23:09:34.489Z,42.63
2019-03-31T23:12:00.828Z,47.70
2019-03-31T23:14:26.915Z,46.33
2019-03-31T23:16:53.016Z,46.02
2019-03-31T23:19:19.092Z,46.45
2019-03-31T23:21:45.185Z,47.67
2019-03-31T23:24:11.250Z,48.23
2019-03-31T23:26:37.336Z,48.43
2019-03-31T23:29:03.424Z,51.37
2019-03-31T23:31:29.532Z,51.10
2019-03-31T23:33:55.608Z,46.80
2019-03-31T23:36:21.712Z,54.70
2019-03-31T23:38:47.783Z,53.45
2019-03-31T23:41:13.874Z,56.25
2019-03-31T23:43:39.944Z,50.00
2019-03-31T23:46:06.030Z,53.52
2019-03-31T23:48:32.131Z,53.55
2019-03-31T23:50:58.228Z,54.35
2019-03-31T23:53:24.292Z,53.92
2019-03-31T23:55:50.375Z,54.38
2019-03-31T23:58:16.482Z,55.40
